sensor_id;sensor_type;location;lat;lon;timestamp;P1;durP1;ratioP1;P2;durP2;ratioP2
74644;SDS011;63163;55.630;37.594;2023-02-26T00:00:41;23.0;;;11.3;;
74644;SDS011;63163;55.630;37.594;2023-02-26T00:01:42;20.6;;;10.7;;
74644;SDS011;63163;55.630;37.594;2023-02-26T00:02:43;20.3;;;10.5;;
74644;SDS011;63163;55.630;37.594;2023-02-26T00:03:47;22.9;;;10.8;;
74644;SDS011;63163;55.630;37.594;2023-02-26T00:04:48;20.8;;;11.3;;
74644;SDS011;63163;55.630;37.594;2023-02-26T00:05:48;22.1;;;11.3;;
74644;SDS011;63163;55.630;37.594;2023-02-26T00:06:49;20.5;;;10.5;;
74644;SDS011;63163;55.630;37.594;2023-02-26T00:07:53;20.1;;;10.2;;
74644;SDS011;63163;55.630;37.594;2023-02-26T00:08:53;23.6;;;11.0;;
74644;SDS011;63163;55.630;37.594;2023-02-26T00:09:54;19.7;;;10.3;;
74644;SDS011;63163;55.630;37.594;2023-02-26T00:10:55;21.5;;;10.6;;
74644;SDS011;63163;55.630;37.594;2023-02-26T00:11:56;21.3;;;10.6;;
74644;SDS011;63163;55.630;37.594;2023-02-26T00:12:57;19.5;;;10.7;;
74644;SDS011;63163;55.630;37.594;2023-02-26T00:13:58;19.8;;;10.6;;
74644;SDS011;63163;55.630;37.594;2023-02-26T00:14:59;19.9;;;10.5;;
74644;SDS011;63163;55.630;37.594;2023-02-26T00:16:00;21.6;;;10.4;;
74644;SDS011;63163;55.630;37.594;2023-02-26T00:17:06;20.9;;;10.3;;
74644;SDS011;63163;55.630;37.594;2023-02-26T00:18:13;19.1;;;10.1;;
74644;SDS011;63163;55.630;37.594;2023-02-26T00:19:15;17.9;;;9.8;;
74644;SDS011;63163;55.630;37.594;2023-02-26T00:20:16;19.1;;;10.2;;
74644;SDS011;63163;55.630;37.594;2023-02-26T00:21:17;17.7;;;10.4;;
74644;SDS011;63163;55.630;37.594;2023-02-26T00:22:18;19.7;;;10.4;;
74644;SDS011;63163;55.630;37.594;2023-02-26T00:23:19;17.5;;;9.8;;
74644;SDS011;63163;55.630;37.594;2023-02-26T00:24:20;16.9;;;10.0;;
74644;SDS011;63163;55.630;37.594;2023-02-26T00:25:20;18.4;;;9.4;;
74644;SDS011;63163;55.630;37.594;2023-02-26T00:26:22;18.6;;;10.1;;
74644;SDS011;63163;55.630;37.594;2023-02-26T00:27:22;17.9;;;9.9;;
74644;SDS011;63163;55.630;37.594;2023-02-26T00:28:23;17.5;;;9.9;;
74644;SDS011;63163;55.630;37.594;2023-02-26T00:29:24;18.8;;;9.7;;
74644;SDS011;63163;55.630;37.594;2023-02-26T00:30:25;18.8;;;9.7;;
74644;SDS011;63163;55.630;37.594;2023-02-26T00:31:26;19.3;;;9.5;;
74644;SDS011;63163;55.630;37.594;2023-02-26T00:32:27;18.2;;;9.3;;
74644;SDS011;63163;55.630;37.594;2023-02-26T00:33:28;17.1;;;9.2;;
74644;SDS011;63163;55.630;37.594;2023-02-26T00:34:29;14.0;;;8.1;;
74644;SDS011;63163;55.630;37.594;2023-02-26T00:35:30;18.5;;;8.9;;
74644;SDS011;63163;55.630;37.594;2023-02-26T00:36:33;15.3;;;9.6;;
74644;SDS011;63163;55.630;37.594;2023-02-26T00:37:44;15.5;;;8.8;;
74644;SDS011;63163;55.630;37.594;2023-02-26T00:38:50;15.9;;;8.5;;
74644;SDS011;63163;55.630;37.594;2023-02-26T00:39:57;15.9;;;9.2;;
74644;SDS011;63163;55.630;37.594;2023-02-26T00:41:00;16.0;;;8.7;;
74644;SDS011;63163;55.630;37.594;2023-02-26T00:42:01;14.9;;;8.2;;
74644;SDS011;63163;55.630;37.594;2023-02-26T00:43:02;15.6;;;8.4;;
74644;SDS011;63163;55.630;37.594;2023-02-26T00:44:03;15.3;;;8.6;;
74644;SDS011;63163;55.630;37.594;2023-02-26T00:45:04;14.0;;;8.4;;
74644;SDS011;63163;55.630;37.594;2023-02-26T00:46:09;16.1;;;9.2;;
74644;SDS011;63163;55.630;37.594;2023-02-26T00:47:14;17.5;;;9.5;;
74644;SDS011;63163;55.630;37.594;2023-02-26T00:48:21;15.1;;;8.6;;
74644;SDS011;63163;55.630;37.594;2023-02-26T00:49:30;16.5;;;9.1;;
74644;SDS011;63163;55.630;37.594;2023-02-26T00:50:34;18.7;;;9.9;;
74644;SDS011;63163;55.630;37.594;2023-02-26T00:51:37;19.7;;;10.2;;
74644;SDS011;63163;55.630;37.594;2023-02-26T00:52:41;21.3;;;11.0;;
74644;SDS011;63163;55.630;37.594;2023-02-26T00:53:43;19.2;;;10.7;;
74644;SDS011;63163;55.630;37.594;2023-02-26T00:54:46;20.0;;;10.9;;
74644;SDS011;63163;55.630;37.594;2023-02-26T00:55:47;20.6;;;11.6;;
74644;SDS011;63163;55.630;37.594;2023-02-26T00:56:47;20.8;;;11.6;;
74644;SDS011;63163;55.630;37.594;2023-02-26T00:57:48;22.6;;;11.8;;
74644;SDS011;63163;55.630;37.594;2023-02-26T00:58:49;20.1;;;12.4;;
74644;SDS011;63163;55.630;37.594;2023-02-26T00:59:50;18.7;;;11.0;;
74644;SDS011;63163;55.630;37.594;2023-02-26T01:00:50;17.9;;;10.1;;
74644;SDS011;63163;55.630;37.594;2023-02-26T01:01:51;19.2;;;11.0;;
74644;SDS011;63163;55.630;37.594;2023-02-26T01:02:52;18.2;;;10.3;;
74644;SDS011;63163;55.630;37.594;2023-02-26T01:03:53;17.0;;;9.7;;
74644;SDS011;63163;55.630;37.594;2023-02-26T01:04:54;15.8;;;9.7;;
74644;SDS011;63163;55.630;37.594;2023-02-26T01:05:55;15.3;;;9.1;;
74644;SDS011;63163;55.630;37.594;2023-02-26T01:06:56;15.3;;;9.5;;
74644;SDS011;63163;55.630;37.594;2023-02-26T01:07:58;16.1;;;8.9;;
74644;SDS011;63163;55.630;37.594;2023-02-26T01:09:02;16.7;;;9.1;;
74644;SDS011;63163;55.630;37.594;2023-02-26T01:10:05;14.1;;;8.0;;
74644;SDS011;63163;55.630;37.594;2023-02-26T01:11:06;13.7;;;7.2;;
74644;SDS011;63163;55.630;37.594;2023-02-26T01:12:08;15.5;;;7.1;;
74644;SDS011;63163;55.630;37.594;2023-02-26T01:13:10;13.3;;;6.8;;
74644;SDS011;63163;55.630;37.594;2023-02-26T01:14:12;11.0;;;6.4;;
74644;SDS011;63163;55.630;37.594;2023-02-26T01:15:12;12.0;;;6.5;;
74644;SDS011;63163;55.630;37.594;2023-02-26T01:16:16;11.9;;;5.7;;
74644;SDS011;63163;55.630;37.594;2023-02-26T01:17:20;9.2;;;5.3;;
74644;SDS011;63163;55.630;37.594;2023-02-26T01:18:23;9.3;;;5.3;;
74644;SDS011;63163;55.630;37.594;2023-02-26T01:19:27;9.6;;;4.8;;
74644;SDS011;63163;55.630;37.594;2023-02-26T01:20:30;8.4;;;4.7;;
74644;SDS011;63163;55.630;37.594;2023-02-26T01:21:35;10.2;;;5.4;;
74644;SDS011;63163;55.630;37.594;2023-02-26T01:22:38;8.1;;;4.9;;
74644;SDS011;63163;55.630;37.594;2023-02-26T01:23:42;9.6;;;4.8;;
74644;SDS011;63163;55.630;37.594;2023-02-26T01:24:46;8.6;;;5.1;;
74644;SDS011;63163;55.630;37.594;2023-02-26T01:25:49;8.1;;;4.7;;
74644;SDS011;63163;55.630;37.594;2023-02-26T01:26:50;8.5;;;4.9;;
74644;SDS011;63163;55.630;37.594;2023-02-26T01:27:52;9.2;;;5.1;;
74644;SDS011;63163;55.630;37.594;2023-02-26T01:28:53;8.8;;;4.8;;
74644;SDS011;63163;55.630;37.594;2023-02-26T01:29:54;8.4;;;4.4;;
74644;SDS011;63163;55.630;37.594;2023-02-26T01:30:56;8.4;;;4.4;;
74644;SDS011;63163;55.630;37.594;2023-02-26T01:32:01;7.7;;;4.4;;
74644;SDS011;63163;55.630;37.594;2023-02-26T01:33:06;8.8;;;5.0;;
74644;SDS011;63163;55.630;37.594;2023-02-26T01:34:10;7.5;;;4.3;;
74644;SDS011;63163;55.630;37.594;2023-02-26T01:35:17;7.7;;;4.6;;
74644;SDS011;63163;55.630;37.594;2023-02-26T01:36:20;7.2;;;4.0;;
74644;SDS011;63163;55.630;37.594;2023-02-26T01:37:23;7.4;;;4.1;;
74644;SDS011;63163;55.630;37.594;2023-02-26T01:38:26;8.6;;;4.2;;
74644;SDS011;63163;55.630;37.594;2023-02-26T01:39:31;8.1;;;4.2;;
74644;SDS011;63163;55.630;37.594;2023-02-26T01:41:11;8.1;;;4.1;;
74644;SDS011;63163;55.630;37.594;2023-02-26T01:42:14;8.1;;;4.0;;
74644;SDS011;63163;55.630;37.594;2023-02-26T01:43:18;7.5;;;4.2;;
74644;SDS011;63163;55.630;37.594;2023-02-26T01:44:21;7.5;;;4.2;;
74644;SDS011;63163;55.630;37.594;2023-02-26T01:45:28;7.4;;;4.2;;
74644;SDS011;63163;55.630;37.594;2023-02-26T01:46:31;7.6;;;4.4;;
74644;SDS011;63163;55.630;37.594;2023-02-26T01:47:35;7.8;;;4.4;;
74644;SDS011;63163;55.630;37.594;2023-02-26T01:48:37;7.0;;;4.1;;
74644;SDS011;63163;55.630;37.594;2023-02-26T01:49:42;7.5;;;4.5;;
74644;SDS011;63163;55.630;37.594;2023-02-26T01:50:43;8.7;;;4.0;;
74644;SDS011;63163;55.630;37.594;2023-02-26T01:51:46;7.5;;;4.1;;
74644;SDS011;63163;55.630;37.594;2023-02-26T01:53:06;7.7;;;4.0;;
74644;SDS011;63163;55.630;37.594;2023-02-26T01:54:15;7.7;;;4.0;;
74644;SDS011;63163;55.630;37.594;2023-02-26T01:55:17;7.1;;;3.9;;
74644;SDS011;63163;55.630;37.594;2023-02-26T01:56:19;6.6;;;3.9;;
74644;SDS011;63163;55.630;37.594;2023-02-26T01:57:20;7.2;;;4.1;;
74644;SDS011;63163;55.630;37.594;2023-02-26T01:58:21;7.4;;;3.6;;
74644;SDS011;63163;55.630;37.594;2023-02-26T01:59:22;6.8;;;4.1;;
74644;SDS011;63163;55.630;37.594;2023-02-26T02:00:24;7.3;;;4.2;;
74644;SDS011;63163;55.630;37.594;2023-02-26T02:01:25;7.4;;;4.3;;
74644;SDS011;63163;55.630;37.594;2023-02-26T02:02:26;6.9;;;3.4;;
74644;SDS011;63163;55.630;37.594;2023-02-26T02:03:26;7.6;;;3.8;;
74644;SDS011;63163;55.630;37.594;2023-02-26T02:04:28;6.3;;;3.5;;
74644;SDS011;63163;55.630;37.594;2023-02-26T02:05:31;7.0;;;4.0;;
74644;SDS011;63163;55.630;37.594;2023-02-26T02:06:33;7.0;;;4.0;;
74644;SDS011;63163;55.630;37.594;2023-02-26T02:07:33;6.4;;;3.9;;
74644;SDS011;63163;55.630;37.594;2023-02-26T02:08:34;6.6;;;3.7;;
74644;SDS011;63163;55.630;37.594;2023-02-26T02:09:35;6.7;;;4.1;;
74644;SDS011;63163;55.630;37.594;2023-02-26T02:10:36;6.1;;;3.6;;
74644;SDS011;63163;55.630;37.594;2023-02-26T02:11:42;10.6;;;4.0;;
74644;SDS011;63163;55.630;37.594;2023-02-26T02:12:47;6.4;;;3.7;;
74644;SDS011;63163;55.630;37.594;2023-02-26T02:13:55;6.3;;;3.7;;
74644;SDS011;63163;55.630;37.594;2023-02-26T02:15:01;7.0;;;4.2;;
74644;SDS011;63163;55.630;37.594;2023-02-26T02:16:06;6.6;;;4.1;;
74644;SDS011;63163;55.630;37.594;2023-02-26T02:17:09;7.1;;;4.1;;
74644;SDS011;63163;55.630;37.594;2023-02-26T02:18:16;8.3;;;4.0;;
74644;SDS011;63163;55.630;37.594;2023-02-26T02:19:23;8.1;;;4.3;;
74644;SDS011;63163;55.630;37.594;2023-02-26T02:20:33;7.8;;;4.3;;
74644;SDS011;63163;55.630;37.594;2023-02-26T02:21:41;7.1;;;4.0;;
74644;SDS011;63163;55.630;37.594;2023-02-26T02:22:51;8.0;;;4.2;;
74644;SDS011;63163;55.630;37.594;2023-02-26T02:23:56;8.2;;;4.1;;
74644;SDS011;63163;55.630;37.594;2023-02-26T02:25:02;7.3;;;4.1;;
74644;SDS011;63163;55.630;37.594;2023-02-26T02:26:13;7.1;;;3.9;;
74644;SDS011;63163;55.630;37.594;2023-02-26T02:27:16;7.6;;;3.7;;
74644;SDS011;63163;55.630;37.594;2023-02-26T02:28:20;5.6;;;3.2;;
74644;SDS011;63163;55.630;37.594;2023-02-26T02:30:02;6.9;;;3.5;;
74644;SDS011;63163;55.630;37.594;2023-02-26T02:31:06;6.9;;;3.5;;
74644;SDS011;63163;55.630;37.594;2023-02-26T02:32:08;7.0;;;4.2;;
74644;SDS011;63163;55.630;37.594;2023-02-26T02:33:10;8.2;;;4.1;;
74644;SDS011;63163;55.630;37.594;2023-02-26T02:34:13;7.4;;;3.9;;
74644;SDS011;63163;55.630;37.594;2023-02-26T02:35:17;8.0;;;4.1;;
74644;SDS011;63163;55.630;37.594;2023-02-26T02:36:21;6.1;;;3.9;;
74644;SDS011;63163;55.630;37.594;2023-02-26T02:37:24;6.5;;;3.5;;
74644;SDS011;63163;55.630;37.594;2023-02-26T02:38:29;7.0;;;3.9;;
74644;SDS011;63163;55.630;37.594;2023-02-26T02:39:33;6.5;;;3.6;;
74644;SDS011;63163;55.630;37.594;2023-02-26T02:40:36;6.3;;;3.6;;
74644;SDS011;63163;55.630;37.594;2023-02-26T02:41:39;6.6;;;3.2;;
74644;SDS011;63163;55.630;37.594;2023-02-26T02:42:42;5.8;;;3.3;;
74644;SDS011;63163;55.630;37.594;2023-02-26T02:43:44;5.8;;;3.0;;
74644;SDS011;63163;55.630;37.594;2023-02-26T02:44:45;7.3;;;3.4;;
74644;SDS011;63163;55.630;37.594;2023-02-26T02:45:48;6.3;;;3.2;;
74644;SDS011;63163;55.630;37.594;2023-02-26T02:46:50;5.8;;;3.6;;
74644;SDS011;63163;55.630;37.594;2023-02-26T02:47:53;6.7;;;3.7;;
74644;SDS011;63163;55.630;37.594;2023-02-26T02:48:56;6.2;;;3.2;;
74644;SDS011;63163;55.630;37.594;2023-02-26T02:50:00;5.8;;;3.4;;
74644;SDS011;63163;55.630;37.594;2023-02-26T02:51:02;5.1;;;3.2;;
74644;SDS011;63163;55.630;37.594;2023-02-26T02:52:05;7.6;;;3.3;;
74644;SDS011;63163;55.630;37.594;2023-02-26T02:53:08;7.7;;;3.8;;
74644;SDS011;63163;55.630;37.594;2023-02-26T02:54:11;6.0;;;3.5;;
74644;SDS011;63163;55.630;37.594;2023-02-26T02:55:13;5.5;;;3.3;;
74644;SDS011;63163;55.630;37.594;2023-02-26T02:56:15;6.2;;;3.2;;
74644;SDS011;63163;55.630;37.594;2023-02-26T02:57:18;5.1;;;2.9;;
74644;SDS011;63163;55.630;37.594;2023-02-26T02:58:20;5.8;;;3.5;;
74644;SDS011;63163;55.630;37.594;2023-02-26T02:59:22;7.5;;;3.5;;
74644;SDS011;63163;55.630;37.594;2023-02-26T03:00:24;6.0;;;3.5;;
74644;SDS011;63163;55.630;37.594;2023-02-26T03:01:26;6.2;;;3.5;;
74644;SDS011;63163;55.630;37.594;2023-02-26T03:02:29;6.4;;;3.1;;
74644;SDS011;63163;55.630;37.594;2023-02-26T03:03:33;6.4;;;3.4;;
74644;SDS011;63163;55.630;37.594;2023-02-26T03:04:34;6.8;;;3.5;;
74644;SDS011;63163;55.630;37.594;2023-02-26T03:05:35;6.0;;;3.7;;
74644;SDS011;63163;55.630;37.594;2023-02-26T03:06:36;6.6;;;3.7;;
74644;SDS011;63163;55.630;37.594;2023-02-26T03:07:38;6.7;;;3.6;;
74644;SDS011;63163;55.630;37.594;2023-02-26T03:08:40;7.3;;;3.6;;
74644;SDS011;63163;55.630;37.594;2023-02-26T03:09:41;6.7;;;3.9;;
74644;SDS011;63163;55.630;37.594;2023-02-26T03:10:42;6.7;;;3.7;;
74644;SDS011;63163;55.630;37.594;2023-02-26T03:11:43;6.7;;;3.9;;
74644;SDS011;63163;55.630;37.594;2023-02-26T03:12:43;6.9;;;3.5;;
74644;SDS011;63163;55.630;37.594;2023-02-26T03:13:44;6.7;;;3.9;;
74644;SDS011;63163;55.630;37.594;2023-02-26T03:14:45;7.0;;;4.1;;
74644;SDS011;63163;55.630;37.594;2023-02-26T03:15:48;6.3;;;3.5;;
74644;SDS011;63163;55.630;37.594;2023-02-26T03:16:55;6.6;;;3.7;;
74644;SDS011;63163;55.630;37.594;2023-02-26T03:18:04;7.2;;;4.2;;
74644;SDS011;63163;55.630;37.594;2023-02-26T03:19:08;7.4;;;4.2;;
74644;SDS011;63163;55.630;37.594;2023-02-26T03:20:13;7.6;;;4.4;;
74644;SDS011;63163;55.630;37.594;2023-02-26T03:21:19;7.7;;;4.6;;
74644;SDS011;63163;55.630;37.594;2023-02-26T03:22:23;8.0;;;4.5;;
74644;SDS011;63163;55.630;37.594;2023-02-26T03:23:26;7.5;;;4.2;;
74644;SDS011;63163;55.630;37.594;2023-02-26T03:24:31;6.8;;;4.2;;
74644;SDS011;63163;55.630;37.594;2023-02-26T03:25:37;8.6;;;4.6;;
74644;SDS011;63163;55.630;37.594;2023-02-26T03:26:41;7.2;;;4.2;;
74644;SDS011;63163;55.630;37.594;2023-02-26T03:27:44;6.5;;;4.1;;
74644;SDS011;63163;55.630;37.594;2023-02-26T03:28:47;6.4;;;4.2;;
74644;SDS011;63163;55.630;37.594;2023-02-26T03:29:51;6.7;;;4.2;;
74644;SDS011;63163;55.630;37.594;2023-02-26T03:30:54;6.7;;;4.2;;
74644;SDS011;63163;55.630;37.594;2023-02-26T03:31:57;6.5;;;4.0;;
74644;SDS011;63163;55.630;37.594;2023-02-26T03:33:01;6.4;;;3.9;;
74644;SDS011;63163;55.630;37.594;2023-02-26T03:34:04;7.6;;;4.2;;
74644;SDS011;63163;55.630;37.594;2023-02-26T03:35:07;8.4;;;4.6;;
74644;SDS011;63163;55.630;37.594;2023-02-26T03:36:12;8.4;;;4.6;;
74644;SDS011;63163;55.630;37.594;2023-02-26T03:37:15;6.6;;;4.2;;
74644;SDS011;63163;55.630;37.594;2023-02-26T03:38:20;6.5;;;4.1;;
74644;SDS011;63163;55.630;37.594;2023-02-26T03:39:25;7.7;;;4.3;;
74644;SDS011;63163;55.630;37.594;2023-02-26T03:40:28;7.2;;;3.9;;
74644;SDS011;63163;55.630;37.594;2023-02-26T03:41:32;7.2;;;4.3;;
74644;SDS011;63163;55.630;37.594;2023-02-26T03:42:35;7.1;;;4.4;;
74644;SDS011;63163;55.630;37.594;2023-02-26T03:43:36;6.2;;;3.9;;
74644;SDS011;63163;55.630;37.594;2023-02-26T03:44:38;6.9;;;4.1;;
74644;SDS011;63163;55.630;37.594;2023-02-26T03:45:41;6.7;;;4.0;;
74644;SDS011;63163;55.630;37.594;2023-02-26T03:46:45;6.6;;;4.2;;
74644;SDS011;63163;55.630;37.594;2023-02-26T03:47:49;7.6;;;4.0;;
74644;SDS011;63163;55.630;37.594;2023-02-26T03:48:52;6.1;;;3.9;;
74644;SDS011;63163;55.630;37.594;2023-02-26T03:49:56;6.7;;;4.0;;
74644;SDS011;63163;55.630;37.594;2023-02-26T03:50:59;5.6;;;3.3;;
74644;SDS011;63163;55.630;37.594;2023-02-26T03:52:00;7.1;;;4.2;;
74644;SDS011;63163;55.630;37.594;2023-02-26T03:53:03;6.7;;;4.0;;
74644;SDS011;63163;55.630;37.594;2023-02-26T03:54:07;6.8;;;4.0;;
74644;SDS011;63163;55.630;37.594;2023-02-26T03:55:10;5.2;;;3.6;;
74644;SDS011;63163;55.630;37.594;2023-02-26T03:56:14;6.5;;;4.0;;
74644;SDS011;63163;55.630;37.594;2023-02-26T03:57:15;6.6;;;3.6;;
74644;SDS011;63163;55.630;37.594;2023-02-26T03:58:16;5.2;;;3.0;;
74644;SDS011;63163;55.630;37.594;2023-02-26T03:59:16;5.9;;;4.0;;
74644;SDS011;63163;55.630;37.594;2023-02-26T04:00:18;7.0;;;4.1;;
74644;SDS011;63163;55.630;37.594;2023-02-26T04:01:19;6.3;;;3.7;;
74644;SDS011;63163;55.630;37.594;2023-02-26T04:02:22;5.8;;;3.7;;
74644;SDS011;63163;55.630;37.594;2023-02-26T04:03:26;6.2;;;3.8;;
74644;SDS011;63163;55.630;37.594;2023-02-26T04:04:29;6.9;;;3.9;;
74644;SDS011;63163;55.630;37.594;2023-02-26T04:05:31;6.1;;;3.7;;
74644;SDS011;63163;55.630;37.594;2023-02-26T04:06:32;8.7;;;4.1;;
74644;SDS011;63163;55.630;37.594;2023-02-26T04:07:33;6.5;;;3.3;;
74644;SDS011;63163;55.630;37.594;2023-02-26T04:08:34;6.9;;;4.0;;
74644;SDS011;63163;55.630;37.594;2023-02-26T04:09:35;7.1;;;4.1;;
74644;SDS011;63163;55.630;37.594;2023-02-26T04:10:37;6.6;;;3.9;;
74644;SDS011;63163;55.630;37.594;2023-02-26T04:11:39;6.1;;;3.9;;
74644;SDS011;63163;55.630;37.594;2023-02-26T04:12:40;6.9;;;4.2;;
74644;SDS011;63163;55.630;37.594;2023-02-26T04:13:40;7.1;;;4.1;;
74644;SDS011;63163;55.630;37.594;2023-02-26T04:14:41;6.8;;;4.0;;
74644;SDS011;63163;55.630;37.594;2023-02-26T04:15:41;8.0;;;4.4;;
74644;SDS011;63163;55.630;37.594;2023-02-26T04:16:42;6.9;;;3.9;;
74644;SDS011;63163;55.630;37.594;2023-02-26T04:17:43;7.2;;;4.1;;
74644;SDS011;63163;55.630;37.594;2023-02-26T04:18:44;6.3;;;4.0;;
74644;SDS011;63163;55.630;37.594;2023-02-26T04:19:44;7.3;;;4.1;;
74644;SDS011;63163;55.630;37.594;2023-02-26T04:20:45;7.1;;;4.0;;
74644;SDS011;63163;55.630;37.594;2023-02-26T04:21:45;5.9;;;3.8;;
74644;SDS011;63163;55.630;37.594;2023-02-26T04:22:46;7.5;;;4.2;;
74644;SDS011;63163;55.630;37.594;2023-02-26T04:23:47;7.0;;;4.1;;
74644;SDS011;63163;55.630;37.594;2023-02-26T04:24:48;8.4;;;4.2;;
74644;SDS011;63163;55.630;37.594;2023-02-26T04:25:49;7.1;;;4.0;;
74644;SDS011;63163;55.630;37.594;2023-02-26T04:26:49;4.8;;;3.2;;
74644;SDS011;63163;55.630;37.594;2023-02-26T04:27:50;5.8;;;3.6;;
74644;SDS011;63163;55.630;37.594;2023-02-26T04:28:50;5.3;;;3.2;;
74644;SDS011;63163;55.630;37.594;2023-02-26T04:29:51;5.3;;;3.2;;
74644;SDS011;63163;55.630;37.594;2023-02-26T04:30:52;7.1;;;3.8;;
74644;SDS011;63163;55.630;37.594;2023-02-26T04:31:52;8.0;;;4.1;;
74644;SDS011;63163;55.630;37.594;2023-02-26T04:32:53;4.7;;;3.0;;
74644;SDS011;63163;55.630;37.594;2023-02-26T04:33:54;4.6;;;2.5;;
74644;SDS011;63163;55.630;37.594;2023-02-26T04:34:55;5.8;;;3.6;;
74644;SDS011;63163;55.630;37.594;2023-02-26T04:35:55;5.6;;;3.1;;
74644;SDS011;63163;55.630;37.594;2023-02-26T04:36:56;5.3;;;3.4;;
74644;SDS011;63163;55.630;37.594;2023-02-26T04:37:57;5.3;;;3.0;;
74644;SDS011;63163;55.630;37.594;2023-02-26T04:38:57;4.8;;;2.6;;
74644;SDS011;63163;55.630;37.594;2023-02-26T04:39:58;4.7;;;2.6;;
74644;SDS011;63163;55.630;37.594;2023-02-26T04:40:59;4.8;;;3.1;;
74644;SDS011;63163;55.630;37.594;2023-02-26T04:41:59;3.8;;;1.9;;
74644;SDS011;63163;55.630;37.594;2023-02-26T04:43:00;3.7;;;2.5;;
74644;SDS011;63163;55.630;37.594;2023-02-26T04:44:01;5.3;;;3.1;;
74644;SDS011;63163;55.630;37.594;2023-02-26T04:45:02;4.0;;;2.1;;
74644;SDS011;63163;55.630;37.594;2023-02-26T04:46:03;4.1;;;2.4;;
74644;SDS011;63163;55.630;37.594;2023-02-26T04:47:03;3.8;;;2.5;;
74644;SDS011;63163;55.630;37.594;2023-02-26T04:48:04;3.7;;;2.2;;
74644;SDS011;63163;55.630;37.594;2023-02-26T04:49:05;3.3;;;2.0;;
74644;SDS011;63163;55.630;37.594;2023-02-26T04:50:06;3.1;;;2.1;;
74644;SDS011;63163;55.630;37.594;2023-02-26T04:51:06;4.0;;;2.0;;
74644;SDS011;63163;55.630;37.594;2023-02-26T04:52:07;3.5;;;1.9;;
74644;SDS011;63163;55.630;37.594;2023-02-26T04:53:08;5.0;;;2.6;;
74644;SDS011;63163;55.630;37.594;2023-02-26T04:54:08;2.8;;;1.8;;
74644;SDS011;63163;55.630;37.594;2023-02-26T04:55:09;3.3;;;2.1;;
74644;SDS011;63163;55.630;37.594;2023-02-26T04:56:10;2.6;;;1.6;;
74644;SDS011;63163;55.630;37.594;2023-02-26T04:57:10;1.8;;;1.2;;
74644;SDS011;63163;55.630;37.594;2023-02-26T04:58:11;3.8;;;2.3;;
74644;SDS011;63163;55.630;37.594;2023-02-26T04:59:11;2.7;;;1.6;;
74644;SDS011;63163;55.630;37.594;2023-02-26T05:00:12;3.4;;;1.9;;
74644;SDS011;63163;55.630;37.594;2023-02-26T05:01:14;2.5;;;1.5;;
74644;SDS011;63163;55.630;37.594;2023-02-26T05:02:15;3.3;;;1.8;;
74644;SDS011;63163;55.630;37.594;2023-02-26T05:03:16;2.1;;;1.3;;
74644;SDS011;63163;55.630;37.594;2023-02-26T05:04:17;1.3;;;0.9;;
74644;SDS011;63163;55.630;37.594;2023-02-26T05:05:17;3.0;;;1.5;;
74644;SDS011;63163;55.630;37.594;2023-02-26T05:06:18;1.5;;;1.1;;
74644;SDS011;63163;55.630;37.594;2023-02-26T05:07:19;1.2;;;0.7;;
74644;SDS011;63163;55.630;37.594;2023-02-26T05:08:19;0.9;;;0.8;;
74644;SDS011;63163;55.630;37.594;2023-02-26T05:09:20;1.3;;;0.8;;
74644;SDS011;63163;55.630;37.594;2023-02-26T05:10:21;3.0;;;1.5;;
74644;SDS011;63163;55.630;37.594;2023-02-26T05:11:21;2.0;;;1.0;;
74644;SDS011;63163;55.630;37.594;2023-02-26T05:12:22;2.0;;;1.3;;
74644;SDS011;63163;55.630;37.594;2023-02-26T05:13:23;2.5;;;1.1;;
74644;SDS011;63163;55.630;37.594;2023-02-26T05:14:23;2.9;;;1.4;;
74644;SDS011;63163;55.630;37.594;2023-02-26T05:15:24;1.8;;;1.1;;
74644;SDS011;63163;55.630;37.594;2023-02-26T05:16:24;0.7;;;0.7;;
74644;SDS011;63163;55.630;37.594;2023-02-26T05:17:25;1.2;;;0.9;;
74644;SDS011;63163;55.630;37.594;2023-02-26T05:18:26;1.7;;;1.2;;
74644;SDS011;63163;55.630;37.594;2023-02-26T05:19:26;1.2;;;0.9;;
74644;SDS011;63163;55.630;37.594;2023-02-26T05:20:27;1.7;;;1.3;;
74644;SDS011;63163;55.630;37.594;2023-02-26T05:21:28;1.3;;;0.8;;
74644;SDS011;63163;55.630;37.594;2023-02-26T05:22:28;1.3;;;0.8;;
74644;SDS011;63163;55.630;37.594;2023-02-26T05:23:29;1.3;;;0.8;;
74644;SDS011;63163;55.630;37.594;2023-02-26T05:24:29;1.4;;;1.0;;
74644;SDS011;63163;55.630;37.594;2023-02-26T05:25:30;1.4;;;0.9;;
74644;SDS011;63163;55.630;37.594;2023-02-26T05:26:30;1.3;;;1.0;;
74644;SDS011;63163;55.630;37.594;2023-02-26T05:27:31;1.2;;;0.7;;
74644;SDS011;63163;55.630;37.594;2023-02-26T05:28:32;0.7;;;0.6;;
74644;SDS011;63163;55.630;37.594;2023-02-26T05:29:33;1.1;;;0.8;;
74644;SDS011;63163;55.630;37.594;2023-02-26T05:30:33;1.1;;;0.8;;
74644;SDS011;63163;55.630;37.594;2023-02-26T05:31:34;2.0;;;0.9;;
74644;SDS011;63163;55.630;37.594;2023-02-26T05:32:35;0.6;;;0.4;;
74644;SDS011;63163;55.630;37.594;2023-02-26T05:33:35;0.9;;;0.7;;
74644;SDS011;63163;55.630;37.594;2023-02-26T05:34:36;1.0;;;0.8;;
74644;SDS011;63163;55.630;37.594;2023-02-26T05:35:36;0.8;;;0.7;;
74644;SDS011;63163;55.630;37.594;2023-02-26T05:36:38;0.8;;;0.7;;
74644;SDS011;63163;55.630;37.594;2023-02-26T05:37:38;1.4;;;0.6;;
74644;SDS011;63163;55.630;37.594;2023-02-26T05:38:39;1.3;;;0.8;;
74644;SDS011;63163;55.630;37.594;2023-02-26T05:39:39;1.3;;;0.9;;
74644;SDS011;63163;55.630;37.594;2023-02-26T05:40:40;0.5;;;0.5;;
74644;SDS011;63163;55.630;37.594;2023-02-26T05:41:41;0.8;;;0.6;;
74644;SDS011;63163;55.630;37.594;2023-02-26T05:42:41;0.9;;;0.7;;
74644;SDS011;63163;55.630;37.594;2023-02-26T05:43:42;0.9;;;0.7;;
74644;SDS011;63163;55.630;37.594;2023-02-26T05:44:43;0.7;;;0.6;;
74644;SDS011;63163;55.630;37.594;2023-02-26T05:45:43;1.1;;;0.6;;
74644;SDS011;63163;55.630;37.594;2023-02-26T05:46:44;0.8;;;0.7;;
74644;SDS011;63163;55.630;37.594;2023-02-26T05:47:44;1.0;;;0.7;;
74644;SDS011;63163;55.630;37.594;2023-02-26T05:48:45;0.8;;;0.7;;
74644;SDS011;63163;55.630;37.594;2023-02-26T05:49:46;0.9;;;0.6;;
74644;SDS011;63163;55.630;37.594;2023-02-26T05:50:47;1.3;;;0.7;;
74644;SDS011;63163;55.630;37.594;2023-02-26T05:51:48;1.2;;;0.5;;
74644;SDS011;63163;55.630;37.594;2023-02-26T05:52:48;1.4;;;0.7;;
74644;SDS011;63163;55.630;37.594;2023-02-26T05:53:49;0.6;;;0.6;;
74644;SDS011;63163;55.630;37.594;2023-02-26T05:54:50;1.0;;;0.6;;
74644;SDS011;63163;55.630;37.594;2023-02-26T05:55:51;1.0;;;0.8;;
74644;SDS011;63163;55.630;37.594;2023-02-26T05:56:52;0.6;;;0.6;;
74644;SDS011;63163;55.630;37.594;2023-02-26T05:57:52;2.3;;;0.9;;
74644;SDS011;63163;55.630;37.594;2023-02-26T05:58:53;0.7;;;0.6;;
74644;SDS011;63163;55.630;37.594;2023-02-26T05:59:54;0.4;;;0.4;;
74644;SDS011;63163;55.630;37.594;2023-02-26T06:00:54;1.7;;;1.0;;
74644;SDS011;63163;55.630;37.594;2023-02-26T06:01:55;0.8;;;0.7;;
74644;SDS011;63163;55.630;37.594;2023-02-26T06:02:55;1.3;;;0.9;;
74644;SDS011;63163;55.630;37.594;2023-02-26T06:03:56;1.2;;;0.8;;
74644;SDS011;63163;55.630;37.594;2023-02-26T06:04:57;1.3;;;0.8;;
74644;SDS011;63163;55.630;37.594;2023-02-26T06:05:57;1.3;;;0.9;;
74644;SDS011;63163;55.630;37.594;2023-02-26T06:06:58;1.6;;;0.9;;
74644;SDS011;63163;55.630;37.594;2023-02-26T06:07:58;1.4;;;0.8;;
74644;SDS011;63163;55.630;37.594;2023-02-26T06:08:59;1.4;;;0.9;;
74644;SDS011;63163;55.630;37.594;2023-02-26T06:10:01;1.1;;;0.8;;
74644;SDS011;63163;55.630;37.594;2023-02-26T06:11:02;1.2;;;0.7;;
74644;SDS011;63163;55.630;37.594;2023-02-26T06:12:02;1.1;;;0.5;;
74644;SDS011;63163;55.630;37.594;2023-02-26T06:13:03;0.9;;;0.7;;
74644;SDS011;63163;55.630;37.594;2023-02-26T06:14:04;1.6;;;0.9;;
74644;SDS011;63163;55.630;37.594;2023-02-26T06:15:05;0.9;;;0.8;;
74644;SDS011;63163;55.630;37.594;2023-02-26T06:16:06;1.4;;;0.7;;
74644;SDS011;63163;55.630;37.594;2023-02-26T06:17:07;1.9;;;0.8;;
74644;SDS011;63163;55.630;37.594;2023-02-26T06:18:08;0.6;;;0.6;;
74644;SDS011;63163;55.630;37.594;2023-02-26T06:19:08;1.2;;;0.7;;
74644;SDS011;63163;55.630;37.594;2023-02-26T06:20:09;1.8;;;0.9;;